createdAt,value
2023-11-16T00:08:29.847Z,5.1
2023-11-16T00:13:52.343Z,5.1
2023-11-16T00:19:27.980Z,5.1
2023-11-16T00:25:05.094Z,5.1
2023-11-16T00:30:18.998Z,5.2
2023-11-16T00:35:58.218Z,5.1
2023-11-16T00:41:32.219Z,5.1
2023-11-16T00:52:17.741Z,5.1
2023-11-16T00:58:07.502Z,5.2
2023-11-16T01:03:44.591Z,5.2
2023-11-16T01:09:12.350Z,5
2023-11-16T01:14:27.824Z,4.9
2023-11-16T01:20:03.874Z,4.4
2023-11-16T01:25:41.125Z,4.2
2023-11-16T01:30:57.426Z,4.2
2023-11-16T01:36:30.718Z,4.1
2023-11-16T01:41:59.780Z,4.1
2023-11-16T01:47:36.502Z,4
2023-11-16T01:53:24.879Z,3.3
2023-11-16T01:58:52.429Z,3.6
2023-11-16T02:04:28.070Z,3.9
2023-11-16T02:09:58.962Z,3.8
2023-11-16T02:15:18.268Z,4
2023-11-16T02:20:57.010Z,4.5
2023-11-16T02:26:26.737Z,4.5
2023-11-16T02:31:45.375Z,4.4
2023-11-16T02:37:20.668Z,4.4
2023-11-16T02:42:52.462Z,4.5
2023-11-16T02:48:19.988Z,4.3
2023-11-16T02:53:44.496Z,4.6
2023-11-16T02:59:36.627Z,4.7
2023-11-16T03:04:55.578Z,4.4
2023-11-16T03:10:40.621Z,4.3
2023-11-16T03:16:09.102Z,4.3
2023-11-16T03:21:25.574Z,4
2023-11-16T03:26:48.130Z,3.6
2023-11-16T03:38:10.077Z,3.2
2023-11-16T03:43:25.393Z,3.2
2023-11-16T03:48:52.146Z,3.5
2023-11-16T03:54:26.457Z,3.6
2023-11-16T04:00:09.100Z,4
2023-11-16T04:05:37.622Z,3.9
2023-11-16T04:11:20.289Z,3.4
2023-11-16T04:16:52.270Z,3.3
2023-11-16T04:27:34.291Z,2.9
2023-11-16T04:33:11.651Z,3.2
2023-11-16T04:38:44.012Z,3.1
2023-11-16T04:44:22.830Z,3
2023-11-16T04:49:40.437Z,2.7
2023-11-16T04:55:28.973Z,2.3
2023-11-16T05:00:48.371Z,2.6
2023-11-16T05:06:34.650Z,2.8
2023-11-16T05:11:49.218Z,2.7
2023-11-16T05:17:10.179Z,2.6
2023-11-16T05:22:47.822Z,2.4
2023-11-16T05:28:14.225Z,2.4
2023-11-16T05:33:52.385Z,2.4
2023-11-16T05:39:20.632Z,2.4
2023-11-16T05:44:50.231Z,2.3
2023-11-16T05:50:37.531Z,2.3
2023-11-16T05:55:47.847Z,2.2
2023-11-16T06:01:26.697Z,2.1
2023-11-16T06:07:04.765Z,2.1
2023-11-16T06:18:14.521Z,2.1
2023-11-16T06:23:26.525Z,2
2023-11-16T06:29:08.686Z,2.2
2023-11-16T06:34:30.991Z,2.3
2023-11-16T06:40:06.209Z,2.3
2023-11-16T06:45:41.307Z,2.2
2023-11-16T06:51:16.133Z,2.1
2023-11-16T06:56:28.057Z,2.2
2023-11-16T07:02:25.449Z,2.1
2023-11-16T07:13:03.638Z,2.2
2023-11-16T07:18:55.594Z,2.3
2023-11-16T07:24:09.757Z,2.6
2023-11-16T07:29:37.857Z,2.8
2023-11-16T07:35:31.818Z,3
2023-11-16T07:40:41.217Z,3
2023-11-16T07:46:19.367Z,3.1
2023-11-16T07:51:56.157Z,3.2
2023-11-16T07:57:22.316Z,3.2
2023-11-16T08:03:06.136Z,3.3
2023-11-16T08:08:32.212Z,3.3
2023-11-16T08:14:06.165Z,3.3
2023-11-16T08:19:22.636Z,3.5
2023-11-16T08:25:01.789Z,3.6
2023-11-16T08:30:42.784Z,3.5
2023-11-16T08:36:06.149Z,3.6
2023-11-16T08:41:43.251Z,3.6
2023-11-16T08:46:54.798Z,3.8
2023-11-16T08:52:28.644Z,4.1
2023-11-16T08:57:55.596Z,3.8
2023-11-16T09:03:38.663Z,3.9
2023-11-16T09:09:07.487Z,3.5
2023-11-16T09:14:58.419Z,3.8
2023-11-16T09:20:27.014Z,4
2023-11-16T09:25:59.117Z,4.1
2023-11-16T09:31:31.301Z,4.4
2023-11-16T09:36:53.769Z,5
2023-11-16T09:42:36.457Z,5.2
2023-11-16T09:48:05.903Z,5.2
2023-11-16T09:53:43.802Z,5.1
2023-11-16T09:59:10.231Z,5.5
2023-11-16T10:04:21.306Z,5.4
2023-11-16T10:10:14.681Z,6.2
2023-11-16T10:15:53.175Z,5.7
2023-11-16T10:21:12.991Z,5.8
2023-11-16T10:26:40.892Z,5.7
2023-11-16T10:37:42.038Z,6
2023-11-16T10:43:18.694Z,5.9
2023-11-16T10:48:59.223Z,5.9
2023-11-16T10:54:28.083Z,6.2
2023-11-16T10:59:42.251Z,6.4
2023-11-16T11:05:40.249Z,6.4
2023-11-16T11:11:06.273Z,6.5
2023-11-16T11:16:21.169Z,6.6
2023-11-16T11:22:01.755Z,7
2023-11-16T11:27:26.706Z,7.2
2023-11-16T11:33:14.220Z,7.3
2023-11-16T11:38:41.234Z,7.3
2023-11-16T11:44:19.024Z,7.3
2023-11-16T11:49:49.749Z,7.1
2023-11-16T11:55:07.131Z,6.9
2023-11-16T12:00:48.853Z,6.9
2023-11-16T12:06:26.580Z,6.9
2023-11-16T12:11:42.933Z,6.8
2023-11-16T12:17:14.938Z,7
2023-11-16T12:22:45.660Z,7
2023-11-16T12:28:43.486Z,7
2023-11-16T12:33:54.124Z,7.1
2023-11-16T12:39:28.602Z,7.2
2023-11-16T12:44:58.710Z,7.3
2023-11-16T12:50:45.710Z,7.4
2023-11-16T12:56:28.073Z,7.5
2023-11-16T13:01:50.418Z,7.7
2023-11-16T13:07:12.743Z,7.9
2023-11-16T13:12:51.990Z,8.3
2023-11-16T13:18:10.390Z,8.3
2023-11-16T13:24:10.308Z,8.3
2023-11-16T13:29:28.238Z,8.5
2023-11-16T13:34:50.161Z,8.6
2023-11-16T13:40:37.486Z,8.7
2023-11-16T13:46:18.301Z,8.6
2023-11-16T13:51:30.434Z,8.9
2023-11-16T14:02:56.948Z,9.1
2023-11-16T14:08:08.585Z,9.1
2023-11-16T14:13:55.158Z,9.2
2023-11-16T14:19:16.389Z,9.2
2023-11-16T14:24:53.863Z,9.3
2023-11-16T14:30:38.045Z,9.4
2023-11-16T14:36:13.799Z,9.4
2023-11-16T14:41:34.931Z,9.3
2023-11-16T14:47:06.320Z,9.3
2023-11-16T14:52:45.065Z,9.3
2023-11-16T14:58:14.356Z,9.5
2023-11-16T15:03:48.998Z,9.6
2023-11-16T15:09:14.526Z,9.6
2023-11-16T15:14:54.628Z,9.6
2023-11-16T15:20:26.799Z,9.7
2023-11-16T15:25:38.666Z,9.7
2023-11-16T15:31:27.115Z,9.7
2023-11-16T15:36:51.365Z,9.7
2023-11-16T15:42:22.119Z,9.7
2023-11-16T15:48:12.398Z,9.7
2023-11-16T15:53:24.604Z,9.8
2023-11-16T15:58:59.676Z,9.8
2023-11-16T16:04:33.118Z,9.7
2023-11-16T16:10:21.962Z,9.8
2023-11-16T16:15:52.333Z,10
2023-11-16T16:21:08.790Z,10.1
2023-11-16T16:32:19.616Z,10.3
2023-11-16T16:37:59.178Z,10.2
2023-11-16T16:43:23.102Z,10.3
2023-11-16T16:49:10.789Z,10.4
2023-11-16T16:54:33.212Z,10.8
2023-11-16T17:00:05.473Z,11.1
2023-11-16T17:05:45.095Z,11.2
2023-11-16T17:11:08.602Z,11.3
2023-11-16T17:16:52.327Z,11.5
2023-11-16T17:22:32.968Z,11.9
2023-11-16T17:28:00.463Z,12
2023-11-16T17:33:35.624Z,12.1
2023-11-16T17:39:06.457Z,12.2
2023-11-16T17:44:35.633Z,12.1
2023-11-16T17:50:13.900Z,11.9
2023-11-16T17:55:29.891Z,11.9
2023-11-16T18:01:03.543Z,11.8
2023-11-16T18:06:47.625Z,11.9
2023-11-16T18:12:20.030Z,11.7
2023-11-16T18:17:38.740Z,11.4
2023-11-16T18:23:21.968Z,11.3
2023-11-16T18:29:04.155Z,11.2
2023-11-16T18:34:34.023Z,11.3
2023-11-16T18:39:54.299Z,11.2
2023-11-16T18:45:36.193Z,11.3
2023-11-16T18:51:02.088Z,11.3
2023-11-16T18:56:34.474Z,11.3
2023-11-16T19:02:11.205Z,11.4
2023-11-16T19:07:40.573Z,11.5
2023-11-16T19:13:28.996Z,11.6
2023-11-16T19:18:55.672Z,11.7
2023-11-16T19:24:14.719Z,11.9
2023-11-16T19:29:46.218Z,11.8
2023-11-16T19:35:39.636Z,11.7
2023-11-16T19:41:14.036Z,11.5
2023-11-16T19:46:47.294Z,11.8
2023-11-16T19:57:36.542Z,12
2023-11-16T20:03:08.650Z,12.2
2023-11-16T20:09:01.740Z,12
2023-11-16T20:14:11.173Z,12.2
2023-11-16T20:19:51.236Z,12.2
2023-11-16T20:25:28.605Z,12.2
2023-11-16T20:31:05.839Z,12
2023-11-16T20:36:22.914Z,12
2023-11-16T20:41:53.104Z,12
2023-11-16T20:47:46.730Z,12
2023-11-16T20:53:25.200Z,12
2023-11-16T20:58:42.335Z,12
2023-11-16T21:04:09.691Z,11.9
2023-11-16T21:09:50.779Z,11.9
2023-11-16T21:15:11.474Z,12
2023-11-16T21:20:55.947Z,11.9
2023-11-16T21:26:38.401Z,11.8
2023-11-16T21:32:13.257Z,11.6
2023-11-16T21:43:14.917Z,11.5
2023-11-16T21:48:34.952Z,11.6
2023-11-16T21:54:26.462Z,11.5
2023-11-16T21:59:49.213Z,11.4
2023-11-16T22:05:23.569Z,11.4
2023-11-16T22:10:46.146Z,11.5
2023-11-16T22:16:29.088Z,11.7
2023-11-16T22:21:50.580Z,11.6
2023-11-16T22:27:22.104Z,11.4
2023-11-16T22:33:08.132Z,11.3
2023-11-16T22:38:48.379Z,11.2
2023-11-16T22:44:06.570Z,11.1
2023-11-16T22:49:42.675Z,11.1
2023-11-16T22:55:19.135Z,11
2023-11-16T23:00:40.392Z,10.8
2023-11-16T23:06:27.786Z,10.9
2023-11-16T23:12:00.947Z,10.8
2023-11-16T23:17:33.036Z,10.5
2023-11-16T23:23:02.089Z,10.6
2023-11-16T23:28:40.644Z,10.5
2023-11-16T23:33:55.624Z,10.5
2023-11-16T23:39:22.208Z,10.5
2023-11-16T23:44:54.500Z,10.4
2023-11-16T23:50:52.873Z,10.4
2023-11-16T23:56:16.303Z,10.4
